Time,TemperatureF,DewpointF,PressureIn,WindDirection,WindDirectionDegrees,WindSpeedMPH,WindSpeedGustMPH,Humidity,HourlyPrecipIn,Conditions,Clouds,dailyrainin,SoftwareType,DateUTC
2013-03-20 00:09:00,59.0,46.0,30.07,WNW,296,6.0,9.0,62,0.00,,CLR,0.00,VWS V14.00,2013-03-20 07:09:00,
2013-03-20 00:19:00,59.0,45.2,30.07,WNW,296,1.0,8.0,60,0.00,,CLR,0.00,VWS V14.00,2013-03-20 07:19:00,
2013-03-20 00:29:00,58.6,45.2,30.06,WNW,296,0.0,4.0,61,0.00,,CLR,0.00,VWS V14.00,2013-03-20 07:29:00,
2013-03-20 00:39:00,57.8,45.3,30.07,WNW,296,0.0,6.0,63,0.00,,CLR,0.00,VWS V14.00,2013-03-20 07:39:00,
2013-03-20 00:49:00,56.6,45.0,30.06,WNW,296,0.0,2.0,65,0.00,,CLR,0.00,VWS V14.00,2013-03-20 07:49:00,
2013-03-20 00:59:00,55.7,44.9,30.06,WNW,296,3.0,4.0,67,0.00,,CLR,0.00,VWS V14.00,2013-03-20 07:59:00,
2013-03-20 01:09:00,54.8,44.8,30.05,WNW,296,0.0,3.0,69,0.00,,BKN110,0.00,VWS V14.00,2013-03-20 08:09:00,
2013-03-20 01:19:00,54.4,44.8,30.05,WNW,296,0.0,2.0,70,0.00,,BKN110,0.00,VWS V14.00,2013-03-20 08:19:00,
2013-03-20 01:29:00,54.2,44.6,30.06,WNW,296,0.0,2.0,70,0.00,,BKN110,0.00,VWS V14.00,2013-03-20 08:29:00,
2013-03-20 01:39:00,54.1,44.5,30.05,WNW,296,0.0,3.0,70,0.00,,BKN110,0.00,VWS V14.00,2013-03-20 08:39:00,
2013-03-20 01:49:00,53.8,44.6,30.05,WNW,296,0.0,0.0,71,0.00,,BKN110,0.00,VWS V14.00,2013-03-20 08:49:00,
2013-03-20 02:00:00,53.4,44.6,30.05,WNW,300,5.0,8.0,72,0.00,,BKN110,0.00,VWS V14.00,2013-03-20 09:00:00,
2013-03-20 02:09:00,53.6,45.5,30.05,NW,308,6.0,11.0,74,0.00,,CLR,0.00,VWS V14.00,2013-03-20 09:09:00,
2013-03-20 02:19:00,53.6,45.2,30.05,NW,320,5.0,7.0,73,0.00,,CLR,0.00,VWS V14.00,2013-03-20 09:19:00,
2013-03-20 02:29:00,54.1,44.9,30.05,NW,315,0.0,10.0,71,0.00,,CLR,0.00,VWS V14.00,2013-03-20 09:29:00,
2013-03-20 02:40:00,54.0,45.2,30.05,NW,315,0.0,3.0,72,0.00,,CLR,0.00,VWS V14.00,2013-03-20 09:40:00,
2013-03-20 02:49:00,53.5,45.1,30.06,NW,315,0.0,4.0,73,0.00,,CLR,0.00,VWS V14.00,2013-03-20 09:49:00,
2013-03-20 02:59:00,53.2,45.1,30.05,NW,315,0.0,4.0,74,0.00,,CLR,0.00,VWS V14.00,2013-03-20 09:59:00,
2013-03-20 03:09:00,53.0,45.3,30.04,NW,315,1.0,4.0,75,0.00,,CLR,0.00,VWS V14.00,2013-03-20 10:09:00,
2013-03-20 03:19:00,53.6,46.2,30.05,NW,308,7.0,11.0,76,0.00,,CLR,0.00,VWS V14.00,2013-03-20 10:19:00,
2013-03-20 03:29:00,54.0,46.3,30.04,NW,325,0.0,11.0,75,0.00,,CLR,0.00,VWS V14.00,2013-03-20 10:29:00,
2013-03-20 03:39:00,53.9,46.9,30.03,NW,321,5.0,11.0,77,0.00,,CLR,0.00,VWS V14.00,2013-03-20 10:39:00,
2013-03-20 03:49:00,53.8,46.8,30.03,NW,321,1.0,9.0,77,0.00,,CLR,0.00,VWS V14.00,2013-03-20 10:49:00,
2013-03-20 04:00:00,53.5,46.8,30.02,NW,324,1.0,6.0,78,0.00,,CLR,0.00,VWS V14.00,2013-03-20 11:00:00,
2013-03-20 04:09:00,53.2,47.5,30.02,NW,318,7.0,10.0,81,0.00,,CLR,0.00,VWS V14.00,2013-03-20 11:09:00,
2013-03-20 04:19:00,52.8,47.1,30.02,NW,315,6.0,10.0,81,0.00,,CLR,0.00,VWS V14.00,2013-03-20 11:19:00,
2013-03-20 04:39:00,52.8,46.5,30.02,NW,315,0.0,2.0,79,0.00,,CLR,0.00,VWS V14.00,2013-03-20 11:39:00,
2013-03-20 04:49:00,52.8,46.5,30.02,NW,315,0.0,1.0,79,0.00,,CLR,0.00,VWS V14.00,2013-03-20 11:49:00,
2013-03-20 05:00:00,52.8,46.1,30.02,NW,315,4.0,4.0,78,0.00,,CLR,0.00,VWS V14.00,2013-03-20 12:00:00,
2013-03-20 05:09:00,52.8,46.1,30.02,NW,315,1.0,6.0,78,0.00,,CLR,0.00,VWS V14.00,2013-03-20 12:09:00,
2013-03-20 05:19:00,53.1,45.8,30.03,NW,315,0.0,1.0,76,0.00,,CLR,0.00,VWS V14.00,2013-03-20 12:19:00,
2013-03-20 05:30:00,53.0,45.7,30.04,NW,315,4.0,4.0,76,0.00,,CLR,0.00,VWS V14.00,2013-03-20 12:30:00,
2013-03-20 05:39:00,53.4,46.0,30.03,NW,315,1.0,6.0,76,0.00,,CLR,0.00,VWS V14.00,2013-03-20 12:39:00,
2013-03-20 05:49:00,53.5,46.1,30.05,NW,316,6.0,6.0,76,0.00,,CLR,0.00,VWS V14.00,2013-03-20 12:49:00,
2013-03-20 05:59:00,53.3,45.9,30.05,NW,315,0.0,7.0,76,0.00,,CLR,0.00,VWS V14.00,2013-03-20 12:59:00,
2013-03-20 06:09:00,52.8,45.8,30.05,NW,315,0.0,3.0,77,0.00,,CLR,0.00,VWS V14.00,2013-03-20 13:09:00,
2013-03-20 06:19:00,52.5,46.2,30.05,NW,315,0.0,0.0,79,0.00,,CLR,0.00,VWS V14.00,2013-03-20 13:19:00,
2013-03-20 06:29:00,52.0,45.7,30.05,NW,315,0.0,3.0,79,0.00,,CLR,0.00,VWS V14.00,2013-03-20 13:29:00,
2013-03-20 06:39:00,51.5,45.9,30.05,NW,315,0.0,1.0,81,0.00,,CLR,0.00,VWS V14.00,2013-03-20 13:39:00,
2013-03-20 06:49:00,51.5,45.9,30.05,NW,315,6.0,6.0,81,0.00,,CLR,0.00,VWS V14.00,2013-03-20 13:49:00,
2013-03-20 06:59:00,51.9,45.9,30.06,NW,315,4.0,6.0,80,0.00,,CLR,0.00,VWS V14.00,2013-03-20 13:59:00,
2013-03-20 07:09:00,52.4,46.4,30.06,NW,317,5.0,7.0,80,0.00,,CLR,0.00,VWS V14.00,2013-03-20 14:09:00,
2013-03-20 07:19:00,52.5,46.2,30.07,NW,317,2.0,5.0,79,0.00,,CLR,0.00,VWS V14.00,2013-03-20 14:19:00,
2013-03-20 07:29:00,52.5,46.5,30.07,NW,317,3.0,7.0,80,0.00,,CLR,0.00,VWS V14.00,2013-03-20 14:29:00,
2013-03-20 07:40:00,52.6,46.6,30.06,NW,317,0.0,5.0,80,0.00,,CLR,0.00,VWS V14.00,2013-03-20 14:40:00,
2013-03-20 07:49:00,52.6,46.9,30.06,NW,317,2.0,4.0,81,0.00,,CLR,0.00,VWS V14.00,2013-03-20 14:49:00,
2013-03-20 08:00:00,52.8,47.1,30.06,NW,317,0.0,2.0,81,0.00,,CLR,0.00,VWS V14.00,2013-03-20 15:00:00,
2013-03-20 08:09:00,52.7,47.0,30.06,NW,317,0.0,0.0,81,0.00,,CLR,0.00,VWS V14.00,2013-03-20 15:09:00,
2013-03-20 08:19:00,53.2,47.5,30.06,NW,317,0.0,2.0,81,0.00,,CLR,0.00,VWS V14.00,2013-03-20 15:19:00,
2013-03-20 08:29:00,54.0,48.3,30.06,NW,317,0.0,0.0,81,0.00,,CLR,0.00,VWS V14.00,2013-03-20 15:29:00,
2013-03-20 08:39:00,54.8,48.4,30.07,NW,317,0.0,0.0,79,0.00,,CLR,0.00,VWS V14.00,2013-03-20 15:39:00,
2013-03-20 08:49:00,56.6,49.8,30.07,NW,312,5.0,9.0,78,0.00,,CLR,0.00,VWS V14.00,2013-03-20 15:49:00,
2013-03-20 08:59:00,57.2,49.0,30.08,NW,306,7.0,14.0,74,0.00,,CLR,0.00,VWS V14.00,2013-03-20 15:59:00,
2013-03-20 09:09:00,57.1,48.9,30.08,NW,315,3.0,15.0,74,0.00,,SCT100,0.00,VWS V14.00,2013-03-20 16:09:00,
2013-03-20 09:19:00,57.1,49.6,30.08,NW,316,8.0,9.0,76,0.00,,SCT100,0.00,VWS V14.00,2013-03-20 16:19:00,
2013-03-20 09:29:00,57.4,50.6,30.09,NW,316,5.0,11.0,78,0.00,,SCT100,0.00,VWS V14.00,2013-03-20 16:29:00,
2013-03-20 09:40:00,58.4,50.9,30.09,NNW,344,5.0,9.0,76,0.00,,BKN120,0.00,VWS V14.00,2013-03-20 16:40:00,
2013-03-20 09:49:00,59.6,51.0,30.10,NNW,327,2.0,9.0,73,0.00,,BKN120,0.00,VWS V14.00,2013-03-20 16:49:00,
2013-03-20 09:59:00,61.1,51.2,30.10,North,350,3.0,9.0,70,0.00,,BKN120,0.00,VWS V14.00,2013-03-20 16:59:00,
2013-03-20 10:09:00,62.3,50.4,30.09,North,5,1.0,9.0,65,0.00,,BKN120,0.00,VWS V14.00,2013-03-20 17:09:00,
2013-03-20 10:19:00,63.2,43.7,30.08,NNW,327,9.0,16.0,49,0.00,,BKN120,0.00,VWS V14.00,2013-03-20 17:19:00,
2013-03-20 10:30:00,63.2,44.3,30.08,WNW,291,7.0,18.0,50,0.00,,BKN120,0.00,VWS V14.00,2013-03-20 17:30:00,
2013-03-20 10:39:00,63.8,44.8,30.08,WNW,300,3.0,14.0,50,0.00,,CLR,0.00,VWS V14.00,2013-03-20 17:39:00,
2013-03-20 10:49:00,64.2,45.2,30.08,NW,318,11.0,13.0,50,0.00,,CLR,0.00,VWS V14.00,2013-03-20 17:49:00,
2013-03-20 11:00:00,64.4,45.9,30.08,NW,309,6.0,13.0,51,0.00,,CLR,0.00,VWS V14.00,2013-03-20 18:00:00,
2013-03-20 11:09:00,65.0,45.9,30.08,NW,315,4.0,11.0,50,0.00,,CLR,0.00,VWS V14.00,2013-03-20 18:09:00,
2013-03-20 11:19:00,65.2,46.1,30.08,NW,316,6.0,10.0,50,0.00,,CLR,0.00,VWS V14.00,2013-03-20 18:19:00,
2013-03-20 11:29:00,66.1,46.9,30.08,NNW,336,1.0,10.0,50,0.00,,CLR,0.00,VWS V14.00,2013-03-20 18:29:00,
2013-03-20 11:39:00,67.3,47.0,30.08,NW,325,1.0,7.0,48,0.00,,CLR,0.00,VWS V14.00,2013-03-20 18:39:00,
2013-03-20 11:49:00,68.8,47.8,30.07,North,350,1.0,6.0,47,0.00,,CLR,0.00,VWS V14.00,2013-03-20 18:49:00,
2013-03-20 11:59:00,69.8,49.8,30.07,NNE,26,5.0,6.0,49,0.00,,CLR,0.00,VWS V14.00,2013-03-20 18:59:00,
2013-03-20 12:09:00,70.7,50.1,30.07,NNW,344,3.0,5.0,48,0.00,,CLR,0.00,VWS V14.00,2013-03-20 19:09:00,
2013-03-20 12:19:00,70.3,49.7,30.07,NW,307,3.0,10.0,48,0.00,,CLR,0.00,VWS V14.00,2013-03-20 19:19:00,
2013-03-20 12:29:00,70.1,50.6,30.07,NW,306,3.0,10.0,50,0.00,,CLR,0.00,VWS V14.00,2013-03-20 19:29:00,
2013-03-20 12:39:00,70.8,51.3,30.07,NW,306,9.0,12.0,50,0.00,,CLR,0.00,VWS V14.00,2013-03-20 19:39:00,
2013-03-20 12:50:00,71.9,51.7,30.07,NNE,21,6.0,11.0,49,0.00,,CLR,0.00,VWS V14.00,2013-03-20 19:50:00,
2013-03-20 12:59:00,72.0,51.3,30.07,North,11,2.0,13.0,48,0.00,,CLR,0.00,VWS V14.00,2013-03-20 19:59:00,
2013-03-20 13:09:00,71.7,51.0,30.07,NW,316,5.0,12.0,48,0.00,,OVC100,0.00,VWS V14.00,2013-03-20 20:09:00,
2013-03-20 13:19:00,71.1,51.0,30.07,NNW,340,4.0,12.0,49,0.00,,OVC100,0.00,VWS V14.00,2013-03-20 20:19:00,
2013-03-20 13:29:00,70.4,50.9,30.07,NW,312,9.0,15.0,50,0.00,,OVC100,0.00,VWS V14.00,2013-03-20 20:29:00,
2013-03-20 13:39:00,69.3,49.3,30.07,NW,321,12.0,18.0,49,0.00,,OVC100,0.00,VWS V14.00,2013-03-20 20:39:00,
2013-03-20 13:50:00,68.0,46.5,30.07,NW,317,9.0,19.0,46,0.00,,OVC100,0.00,VWS V14.00,2013-03-20 20:50:00,
2013-03-20 13:59:00,66.9,46.0,30.07,NW,308,11.0,19.0,47,0.00,,OVC100,0.00,VWS V14.00,2013-03-20 20:59:00,
2013-03-20 14:09:00,66.5,46.2,30.07,NW,308,7.0,17.0,48,0.00,,SCT100,0.00,VWS V14.00,2013-03-20 21:09:00,
2013-03-20 14:19:00,66.1,45.9,30.07,NW,317,12.0,19.0,48,0.00,,SCT100,0.00,VWS V14.00,2013-03-20 21:19:00,
2013-03-20 14:30:00,62.8,44.9,30.07,NW,311,17.0,24.0,52,0.00,,SCT100,0.00,VWS V14.00,2013-03-20 21:30:00,
2013-03-20 14:39:00,60.2,42.5,30.08,NW,310,16.0,22.0,52,0.00,,SCT100,0.00,VWS V14.00,2013-03-20 21:39:00,
2013-03-20 14:49:00,60.0,40.8,30.08,NW,310,14.0,21.0,49,0.00,,SCT100,0.00,VWS V14.00,2013-03-20 21:49:00,
2013-03-20 14:59:00,60.3,38.3,30.07,NW,313,10.0,20.0,44,0.00,,SCT100,0.00,VWS V14.00,2013-03-20 21:59:00,
2013-03-20 15:10:00,60.2,38.8,30.07,NW,305,15.0,23.0,45,0.00,,SCT100,0.00,VWS V14.00,2013-03-20 22:10:00,
2013-03-20 15:19:00,59.8,37.9,30.06,NW,311,9.0,19.0,44,0.00,,SCT100,0.00,VWS V14.00,2013-03-20 22:19:00,
2013-03-20 15:29:00,59.8,38.4,30.06,NNW,339,8.0,21.0,45,0.00,,SCT100,0.00,VWS V14.00,2013-03-20 22:29:00,
2013-03-20 15:39:00,60.1,39.3,30.06,NW,312,11.0,15.0,46,0.00,,SCT100,0.00,VWS V14.00,2013-03-20 22:39:00,
2013-03-20 15:49:00,60.4,38.4,30.06,NW,305,13.0,14.0,44,0.00,,SCT100,0.00,VWS V14.00,2013-03-20 22:49:00,
2013-03-20 15:59:00,60.7,39.3,30.06,NW,315,9.0,16.0,45,0.00,,SCT100,0.00,VWS V14.00,2013-03-20 22:59:00,
2013-03-20 16:09:00,60.7,40.4,30.06,NNW,327,8.0,13.0,47,0.00,,CLR,0.00,VWS V14.00,2013-03-20 23:09:00,
2013-03-20 16:19:00,60.7,42.0,30.05,NW,315,3.0,12.0,50,0.00,,CLR,0.00,VWS V14.00,2013-03-20 23:19:00,
2013-03-20 16:29:00,60.5,42.3,30.05,NW,309,5.0,11.0,51,0.00,,CLR,0.00,VWS V14.00,2013-03-20 23:29:00,
2013-03-20 16:40:00,60.5,42.8,30.05,NW,309,7.0,10.0,52,0.00,,CLR,0.00,VWS V14.00,2013-03-20 23:40:00,
2013-03-20 16:49:00,61.2,43.5,30.04,NW,311,3.0,10.0,52,0.00,,CLR,0.00,VWS V14.00,2013-03-20 23:49:00,
2013-03-20 16:59:00,61.9,44.1,30.05,NW,326,8.0,12.0,52,0.00,,CLR,0.00,VWS V14.00,2013-03-20 23:59:00,
2013-03-20 17:09:00,60.9,44.2,30.05,NW,313,11.0,18.0,54,0.00,,OVC160,0.00,VWS V14.00,2013-03-21 00:09:00,
2013-03-20 17:19:00,59.0,43.8,30.06,NW,317,18.0,24.0,57,0.00,,OVC160,0.00,VWS V14.00,2013-03-21 00:19:00,
2013-03-20 17:29:00,57.9,43.2,30.05,WNW,303,17.0,21.0,58,0.00,,OVC160,0.00,VWS V14.00,2013-03-21 00:29:00,
2013-03-20 17:39:00,58.2,43.5,30.05,WNW,303,12.0,21.0,58,0.00,,FEW070,0.00,VWS V14.00,2013-03-21 00:39:00,
2013-03-20 17:50:00,59.0,45.2,30.06,NNW,334,11.0,16.0,60,0.00,,FEW070,0.00,VWS V14.00,2013-03-21 00:50:00,
2013-03-20 17:59:00,59.1,46.5,30.06,NW,315,10.0,16.0,63,0.00,,FEW070,0.00,VWS V14.00,2013-03-21 00:59:00,
2013-03-20 18:09:00,59.0,47.3,30.06,NW,308,6.0,15.0,65,0.00,,FEW070,0.00,VWS V14.00,2013-03-21 01:09:00,
2013-03-20 18:19:00,58.4,47.5,30.06,NW,310,14.0,18.0,67,0.00,,FEW070,0.00,VWS V14.00,2013-03-21 01:19:00,
2013-03-20 18:29:00,58.1,47.6,30.06,NW,316,7.0,14.0,68,0.00,,FEW070,0.00,VWS V14.00,2013-03-21 01:29:00,
2013-03-20 18:39:00,57.4,47.3,30.06,NW,323,13.0,17.0,69,0.00,,FEW070,0.00,VWS V14.00,2013-03-21 01:39:00,
2013-03-20 18:49:00,56.5,46.8,30.07,NNW,328,11.0,17.0,70,0.00,,FEW070,0.00,VWS V14.00,2013-03-21 01:49:00,
2013-03-20 18:59:00,56.5,45.7,30.06,NW,311,13.0,15.0,67,0.00,,FEW070,0.00,VWS V14.00,2013-03-21 01:59:00,
2013-03-20 19:09:00,56.6,45.8,30.06,NW,312,11.0,13.0,67,0.00,,OVC100,0.00,VWS V14.00,2013-03-21 02:09:00,
2013-03-20 19:19:00,56.0,46.4,30.05,NW,305,13.0,14.0,70,0.00,,OVC100,0.00,VWS V14.00,2013-03-21 02:19:00,
2013-03-20 19:29:00,55.2,46.7,30.05,NW,313,10.0,14.0,73,0.00,,OVC100,0.00,VWS V14.00,2013-03-21 02:29:00,
2013-03-20 19:39:00,54.6,46.8,30.05,North,9,4.0,12.0,75,0.00,,OVC100,0.00,VWS V14.00,2013-03-21 02:39:00,
2013-03-20 19:49:00,54.0,47.0,30.05,NNW,338,4.0,7.0,77,0.00,,OVC100,0.00,VWS V14.00,2013-03-21 02:49:00,
2013-03-20 19:59:00,53.5,46.5,30.05,NW,311,7.0,11.0,77,0.00,,OVC100,0.00,VWS V14.00,2013-03-21 02:59:00,
2013-03-20 20:10:00,54.0,46.6,30.04,NW,315,12.0,12.0,76,0.00,,OVC050,0.00,VWS V14.00,2013-03-21 03:10:00,
2013-03-20 20:19:00,53.7,47.3,30.05,NW,318,12.0,15.0,79,0.00,,OVC050,0.00,VWS V14.00,2013-03-21 03:19:00,
2013-03-20 20:29:00,53.2,47.5,30.06,NW,309,10.0,17.0,81,0.00,,OVC050,0.00,VWS V14.00,2013-03-21 03:29:00,
2013-03-20 20:39:00,53.0,48.0,30.06,NW,319,12.0,14.0,83,0.00,,BKN070,0.00,VWS V14.00,2013-03-21 03:39:00,
2013-03-20 20:49:00,52.8,48.1,30.06,NW,317,11.0,15.0,84,0.00,,BKN070,0.00,VWS V14.00,2013-03-21 03:49:00,
2013-03-20 20:59:00,52.4,48.0,30.06,NW,317,12.0,14.0,85,0.00,,BKN070,0.00,VWS V14.00,2013-03-21 03:59:00,
2013-03-20 21:09:00,52.2,48.2,30.06,NW,304,9.0,15.0,86,0.00,,BKN070,0.00,VWS V14.00,2013-03-21 04:09:00,
2013-03-20 21:19:00,52.0,48.3,30.05,NW,309,7.0,14.0,87,0.00,,BKN070,0.00,VWS V14.00,2013-03-21 04:19:00,
2013-03-20 21:29:00,51.7,48.0,30.05,NW,319,9.0,13.0,87,0.00,,BKN070,0.00,VWS V14.00,2013-03-21 04:29:00,
2013-03-20 21:40:00,51.7,48.0,30.05,NNW,344,9.0,16.0,87,0.00,,BKN070,0.00,VWS V14.00,2013-03-21 04:40:00,
2013-03-20 21:49:00,51.9,48.2,30.05,North,10,2.0,10.0,87,0.00,,BKN070,0.00,VWS V14.00,2013-03-21 04:49:00,
2013-03-20 21:59:00,51.7,48.0,30.05,North,355,0.0,10.0,87,0.00,,BKN070,0.00,VWS V14.00,2013-03-21 04:59:00,
2013-03-20 22:09:00,51.5,48.1,30.05,NW,324,7.0,7.0,88,0.00,,FEW085,0.00,VWS V14.00,2013-03-21 05:09:00,
2013-03-20 22:19:00,51.4,48.0,30.05,NW,317,7.0,10.0,88,0.00,,FEW085,0.00,VWS V14.00,2013-03-21 05:19:00,
2013-03-20 22:29:00,51.8,48.7,30.05,NW,314,7.0,13.0,89,0.00,,FEW085,0.00,VWS V14.00,2013-03-21 05:29:00,
2013-03-20 22:39:00,51.9,49.1,30.05,NW,304,11.0,15.0,90,0.00,,FEW085,0.00,VWS V14.00,2013-03-21 05:39:00,
2013-03-20 22:49:00,51.7,48.9,30.04,NW,313,9.0,16.0,90,0.00,,FEW085,0.00,VWS V14.00,2013-03-21 05:49:00,
2013-03-20 22:59:00,51.4,48.6,30.04,NW,317,7.0,13.0,90,0.00,,FEW085,0.00,VWS V14.00,2013-03-21 05:59:00,
2013-03-20 23:09:00,51.1,48.3,30.04,NW,308,9.0,14.0,90,0.00,,CLR,0.00,VWS V14.00,2013-03-21 06:09:00,
2013-03-20 23:19:00,50.9,48.1,30.04,NW,316,10.0,12.0,90,0.00,,CLR,0.00,VWS V14.00,2013-03-21 06:19:00,
2013-03-20 23:29:00,50.9,48.1,30.03,NNW,329,7.0,11.0,90,0.00,,CLR,0.00,VWS V14.00,2013-03-21 06:29:00,
2013-03-20 23:39:00,51.0,48.5,30.04,NW,313,4.0,12.0,91,0.00,,CLR,0.00,VWS V14.00,2013-03-21 06:39:00,
2013-03-20 23:49:00,50.9,48.4,30.04,NW,316,10.0,13.0,91,0.00,,CLR,0.00,VWS V14.00,2013-03-21 06:49:00,